AAY3183 KMCO-KATW
Flight info
| Callsign | AAY3183 |
|---|---|
| Flight time | 2h 45m |
| Altitude | 34000 |
| Route | RDSOX1 JFRYS BRUTS Q118 THRSR Q79 IIU J89 BAE CORIR |
| Aircraft | A320/M-SDE3FGHIRWY/LB1 |
Departure
| Time | 2026-05-08 01:16 |
|---|---|
| Airport | Orlando International Airport (KMCO) |
Arrival
| Time | 2026-05-08 04:01 |
|---|---|
| Airport | Appleton International Airport (KATW) |
| Time | Latitude | Longitude | Altitude | Speed | Heading |
|---|---|---|---|---|---|
| 2026-05-08 00:47 | 28.42661 | -81.31317 | 94 ft | 0 kts | 13° |
| 2026-05-08 01:05 | 28.42654 | -81.31319 | 95 ft | 2 kts | 13° |
| 2026-05-08 01:05 | 28.42637 | -81.31323 | 94 ft | 2 kts | 13° |
| 2026-05-08 01:06 | 28.42621 | -81.31328 | 94 ft | 2 kts | 13° |
| 2026-05-08 01:06 | 28.42603 | -81.31331 | 94 ft | 3 kts | 346° |
| 2026-05-08 01:06 | 28.42587 | -81.31323 | 94 ft | 2 kts | 321° |
| 2026-05-08 01:06 | 28.42574 | -81.31311 | 94 ft | 3 kts | 304° |
| 2026-05-08 01:07 | 28.42567 | -81.31293 | 94 ft | 1 kts | 286° |
| 2026-05-08 01:10 | 28.42563 | -81.31314 | 94 ft | 5 kts | 249° |
| 2026-05-08 01:10 | 28.42544 | -81.31351 | 96 ft | 7 kts | 239° |
| 2026-05-08 01:10 | 28.42502 | -81.31368 | 95 ft | 8 kts | 160° |
| 2026-05-08 01:10 | 28.42458 | -81.31326 | 94 ft | 10 kts | 137° |
| 2026-05-08 01:11 | 28.42407 | -81.31283 | 96 ft | 10 kts | 168° |
| 2026-05-08 01:11 | 28.42330 | -81.31280 | 96 ft | 10 kts | 179° |
| 2026-05-08 01:11 | 28.42269 | -81.31326 | 96 ft | 13 kts | 262° |
| 2026-05-08 01:11 | 28.42268 | -81.31431 | 96 ft | 14 kts | 269° |
| 2026-05-08 01:12 | 28.42267 | -81.31542 | 97 ft | 14 kts | 270° |
| 2026-05-08 01:12 | 28.42266 | -81.31655 | 98 ft | 15 kts | 269° |
| 2026-05-08 01:12 | 28.42265 | -81.31772 | 99 ft | 15 kts | 269° |
| 2026-05-08 01:12 | 28.42263 | -81.31894 | 99 ft | 16 kts | 269° |
| 2026-05-08 01:13 | 28.42214 | -81.31987 | 101 ft | 16 kts | 185° |
| 2026-05-08 01:13 | 28.42104 | -81.31985 | 98 ft | 15 kts | 179° |
| 2026-05-08 01:13 | 28.42007 | -81.31984 | 99 ft | 13 kts | 179° |
| 2026-05-08 01:13 | 28.41901 | -81.31983 | 98 ft | 16 kts | 179° |
| 2026-05-08 01:14 | 28.41796 | -81.31982 | 101 ft | 14 kts | 179° |
| 2026-05-08 01:14 | 28.41697 | -81.31981 | 100 ft | 14 kts | 180° |
| 2026-05-08 01:14 | 28.41597 | -81.31981 | 97 ft | 14 kts | 180° |
| 2026-05-08 01:14 | 28.41544 | -81.32046 | 97 ft | 13 kts | 268° |
| 2026-05-08 01:15 | 28.41543 | -81.32152 | 97 ft | 14 kts | 269° |
| 2026-05-08 01:15 | 28.41572 | -81.32197 | 97 ft | 7 kts | 355° |
| 2026-05-08 01:15 | 28.41668 | -81.32197 | 97 ft | 36 kts | 359° |
| 2026-05-08 01:15 | 28.42162 | -81.32203 | 100 ft | 103 kts | 359° |
| 2026-05-08 01:16 | 28.43068 | -81.32213 | 99 ft | 156 kts | 359° |
| 2026-05-08 01:16 | 28.44267 | -81.32216 | 339 ft | 177 kts | 356° |
| 2026-05-08 01:16 | 28.45517 | -81.32236 | 1030 ft | 178 kts | 356° |
| 2026-05-08 01:16 | 28.46744 | -81.32254 | 1703 ft | 179 kts | 355° |
| 2026-05-08 01:17 | 28.48028 | -81.32273 | 2130 ft | 192 kts | 355° |
| 2026-05-08 01:17 | 28.49428 | -81.32293 | 2419 ft | 210 kts | 356° |
| 2026-05-08 01:17 | 28.50956 | -81.32314 | 2651 ft | 232 kts | 354° |
| 2026-05-08 01:17 | 28.52614 | -81.32466 | 3096 ft | 243 kts | 351° |
| 2026-05-08 01:18 | 28.54303 | -81.32704 | 3771 ft | 247 kts | 346° |
| 2026-05-08 01:18 | 28.55918 | -81.33380 | 4444 ft | 249 kts | 333° |
| 2026-05-08 01:18 | 28.57529 | -81.34216 | 5146 ft | 253 kts | 332° |
| 2026-05-08 01:18 | 28.58931 | -81.35392 | 5840 ft | 252 kts | 306° |
| 2026-05-08 01:19 | 28.59693 | -81.37172 | 6298 ft | 263 kts | 278° |
| 2026-05-08 01:19 | 28.59746 | -81.39288 | 6818 ft | 272 kts | 269° |
| 2026-05-08 01:19 | 28.59714 | -81.41454 | 7488 ft | 275 kts | 269° |
| 2026-05-08 01:19 | 28.59684 | -81.43665 | 8220 ft | 277 kts | 269° |
| 2026-05-08 01:20 | 28.59659 | -81.45859 | 8942 ft | 278 kts | 269° |
| 2026-05-08 01:20 | 28.59633 | -81.48063 | 9674 ft | 279 kts | 268° |
| 2026-05-08 01:20 | 28.59330 | -81.50218 | 10320 ft | 282 kts | 253° |
| 2026-05-08 01:20 | 28.58563 | -81.52316 | 10691 ft | 297 kts | 247° |
| 2026-05-08 01:21 | 28.57675 | -81.54530 | 10819 ft | 319 kts | 247° |
| 2026-05-08 01:21 | 28.56725 | -81.56888 | 11032 ft | 334 kts | 247° |
| 2026-05-08 01:21 | 28.55746 | -81.59314 | 11550 ft | 340 kts | 247° |
| 2026-05-08 01:21 | 28.54758 | -81.61766 | 12149 ft | 342 kts | 246° |
| 2026-05-08 01:22 | 28.53765 | -81.64234 | 12764 ft | 344 kts | 246° |
| 2026-05-08 01:22 | 28.52766 | -81.66717 | 13377 ft | 346 kts | 246° |
| 2026-05-08 01:22 | 28.51761 | -81.69215 | 13962 ft | 348 kts | 246° |
| 2026-05-08 01:22 | 28.50750 | -81.71728 | 14488 ft | 351 kts | 247° |
| 2026-05-08 01:23 | 28.49734 | -81.74255 | 15033 ft | 352 kts | 247° |
| 2026-05-08 01:23 | 28.48713 | -81.76794 | 15560 ft | 354 kts | 247° |
| 2026-05-08 01:23 | 28.47684 | -81.79348 | 16104 ft | 356 kts | 248° |
| 2026-05-08 01:23 | 28.46652 | -81.81912 | 16629 ft | 358 kts | 248° |
| 2026-05-08 01:24 | 28.45615 | -81.84492 | 17159 ft | 360 kts | 248° |
| 2026-05-08 01:24 | 28.44570 | -81.87081 | 17685 ft | 362 kts | 248° |
| 2026-05-08 01:24 | 28.43530 | -81.89694 | 18215 ft | 363 kts | 251° |
| 2026-05-08 01:24 | 28.42829 | -81.92436 | 18676 ft | 361 kts | 262° |
| 2026-05-08 01:25 | 28.42629 | -81.95278 | 19122 ft | 362 kts | 272° |
| 2026-05-08 01:25 | 28.42687 | -81.98143 | 19579 ft | 364 kts | 272° |
| 2026-05-08 01:25 | 28.42741 | -82.01020 | 20043 ft | 366 kts | 272° |
| 2026-05-08 01:25 | 28.42878 | -82.03910 | 20493 ft | 368 kts | 279° |
| 2026-05-08 01:26 | 28.43676 | -82.06672 | 20924 ft | 372 kts | 296° |
| 2026-05-08 01:26 | 28.45141 | -82.09122 | 21351 ft | 377 kts | 303° |
| 2026-05-08 01:26 | 28.46721 | -82.11511 | 21774 ft | 379 kts | 304° |
| 2026-05-08 01:26 | 28.48323 | -82.13906 | 22187 ft | 382 kts | 304° |
| 2026-05-08 01:27 | 28.49940 | -82.16314 | 22591 ft | 384 kts | 304° |
| 2026-05-08 01:27 | 28.51563 | -82.18738 | 22991 ft | 386 kts | 303° |
| 2026-05-08 01:27 | 28.53193 | -82.21180 | 23378 ft | 389 kts | 303° |
| 2026-05-08 01:27 | 28.54829 | -82.23636 | 23735 ft | 391 kts | 303° |
| 2026-05-08 01:28 | 28.56474 | -82.26106 | 24050 ft | 393 kts | 303° |
| 2026-05-08 01:28 | 28.58126 | -82.28587 | 24377 ft | 394 kts | 303° |
| 2026-05-08 01:28 | 28.59782 | -82.31078 | 24682 ft | 396 kts | 303° |
| 2026-05-08 01:28 | 28.61444 | -82.33578 | 24997 ft | 397 kts | 303° |
| 2026-05-08 01:29 | 28.63111 | -82.36092 | 25293 ft | 398 kts | 303° |
| 2026-05-08 01:29 | 28.64782 | -82.38620 | 25589 ft | 400 kts | 303° |
| 2026-05-08 01:29 | 28.66455 | -82.41156 | 25886 ft | 401 kts | 303° |
| 2026-05-08 01:29 | 28.68134 | -82.43698 | 26183 ft | 403 kts | 303° |
| 2026-05-08 01:30 | 28.69821 | -82.46252 | 26467 ft | 404 kts | 303° |
| 2026-05-08 01:30 | 28.71513 | -82.48815 | 26751 ft | 406 kts | 302° |
| 2026-05-08 01:30 | 28.73211 | -82.51390 | 27031 ft | 407 kts | 302° |
| 2026-05-08 01:30 | 28.74918 | -82.53973 | 27311 ft | 409 kts | 302° |
| 2026-05-08 01:31 | 28.76633 | -82.56564 | 27587 ft | 410 kts | 303° |
| 2026-05-08 01:31 | 28.78354 | -82.59160 | 27859 ft | 412 kts | 303° |
| 2026-05-08 01:31 | 28.80085 | -82.61767 | 28119 ft | 413 kts | 303° |
| 2026-05-08 01:31 | 28.82002 | -82.64236 | 28368 ft | 420 kts | 312° |
| 2026-05-08 01:32 | 28.84321 | -82.66310 | 28611 ft | 429 kts | 321° |
| 2026-05-08 01:32 | 28.86996 | -82.67908 | 28839 ft | 439 kts | 330° |
| 2026-05-08 01:32 | 28.89832 | -82.69224 | 29058 ft | 441 kts | 331° |
| 2026-05-08 01:32 | 28.92684 | -82.70545 | 29278 ft | 443 kts | 331° |
| 2026-05-08 01:33 | 28.95540 | -82.71872 | 29496 ft | 444 kts | 331° |
| 2026-05-08 01:33 | 28.98404 | -82.73208 | 29699 ft | 445 kts | 330° |
| 2026-05-08 01:33 | 29.01272 | -82.74548 | 29924 ft | 446 kts | 330° |
| 2026-05-08 01:33 | 29.04141 | -82.75889 | 30211 ft | 445 kts | 330° |
| 2026-05-08 01:34 | 29.07000 | -82.77228 | 30468 ft | 444 kts | 330° |
| 2026-05-08 01:34 | 29.09851 | -82.78567 | 30722 ft | 443 kts | 330° |
| 2026-05-08 01:34 | 29.12697 | -82.79903 | 30978 ft | 442 kts | 330° |
| 2026-05-08 01:34 | 29.15538 | -82.81236 | 31243 ft | 441 kts | 330° |
| 2026-05-08 01:35 | 29.18331 | -82.82549 | 31501 ft | 440 kts | 330° |
| 2026-05-08 01:35 | 29.21157 | -82.83878 | 31764 ft | 438 kts | 330° |
| 2026-05-08 01:35 | 29.23974 | -82.85204 | 32034 ft | 437 kts | 330° |
| 2026-05-08 01:35 | 29.26781 | -82.86528 | 32301 ft | 436 kts | 330° |
| 2026-05-08 01:36 | 29.29585 | -82.87851 | 32568 ft | 435 kts | 330° |
| 2026-05-08 01:36 | 29.32384 | -82.89169 | 32836 ft | 434 kts | 329° |
| 2026-05-08 01:36 | 29.35172 | -82.90483 | 33083 ft | 434 kts | 329° |
| 2026-05-08 01:36 | 29.37964 | -82.91798 | 33322 ft | 433 kts | 329° |
| 2026-05-08 01:37 | 29.39811 | -82.92670 | 33487 ft | 433 kts | 329° |
| 2026-05-08 01:37 | 29.42594 | -82.93981 | 33714 ft | 432 kts | 329° |
| 2026-05-08 01:37 | 29.45373 | -82.95292 | 33948 ft | 433 kts | 329° |
| 2026-05-08 01:38 | 29.50941 | -82.97929 | 34021 ft | 432 kts | 329° |
| 2026-05-08 01:38 | 29.56501 | -83.00569 | 34022 ft | 432 kts | 329° |
| 2026-05-08 01:39 | 29.62057 | -83.03216 | 34018 ft | 432 kts | 329° |
| 2026-05-08 01:39 | 29.67619 | -83.05867 | 34016 ft | 432 kts | 329° |
| 2026-05-08 01:40 | 29.73176 | -83.08516 | 34017 ft | 432 kts | 329° |
| 2026-05-08 01:40 | 29.78735 | -83.11168 | 34020 ft | 432 kts | 328° |
| 2026-05-08 01:41 | 29.84285 | -83.13831 | 34014 ft | 432 kts | 328° |
| 2026-05-08 01:41 | 29.89837 | -83.16498 | 34022 ft | 432 kts | 328° |
| 2026-05-08 01:42 | 29.95392 | -83.19160 | 34018 ft | 432 kts | 328° |
| 2026-05-08 01:42 | 30.00953 | -83.21825 | 34018 ft | 433 kts | 328° |
| 2026-05-08 01:43 | 30.06509 | -83.24497 | 34015 ft | 433 kts | 328° |
| 2026-05-08 01:43 | 30.12070 | -83.27178 | 34021 ft | 433 kts | 328° |
| 2026-05-08 01:44 | 30.17639 | -83.29861 | 34015 ft | 433 kts | 328° |
| 2026-05-08 01:44 | 30.23170 | -83.32532 | 34013 ft | 434 kts | 328° |
| 2026-05-08 01:45 | 30.28781 | -83.35245 | 34008 ft | 434 kts | 328° |
| 2026-05-08 01:45 | 30.34362 | -83.37944 | 34005 ft | 435 kts | 328° |
| 2026-05-08 01:46 | 30.39914 | -83.40624 | 33998 ft | 435 kts | 328° |
| 2026-05-08 01:46 | 30.45511 | -83.43323 | 34001 ft | 436 kts | 328° |
| 2026-05-08 01:47 | 30.51108 | -83.46039 | 33998 ft | 436 kts | 328° |
| 2026-05-08 01:47 | 30.56709 | -83.48765 | 33993 ft | 437 kts | 328° |
| 2026-05-08 01:48 | 30.65112 | -83.52860 | 33991 ft | 437 kts | 328° |
| 2026-05-08 01:48 | 30.70713 | -83.55586 | 33993 ft | 436 kts | 328° |
| 2026-05-08 01:49 | 30.76312 | -83.58321 | 34004 ft | 436 kts | 327° |
| 2026-05-08 01:49 | 30.81908 | -83.61054 | 34002 ft | 436 kts | 327° |
| 2026-05-08 01:50 | 30.87510 | -83.63789 | 34008 ft | 436 kts | 327° |
| 2026-05-08 01:50 | 30.93103 | -83.66534 | 34013 ft | 436 kts | 327° |
| 2026-05-08 01:51 | 30.98694 | -83.69278 | 34006 ft | 436 kts | 327° |
| 2026-05-08 01:51 | 31.04283 | -83.72016 | 34011 ft | 436 kts | 327° |
| 2026-05-08 01:52 | 31.09872 | -83.74755 | 34009 ft | 436 kts | 327° |
| 2026-05-08 01:52 | 31.15416 | -83.77488 | 34010 ft | 435 kts | 327° |
| 2026-05-08 01:53 | 31.20992 | -83.80236 | 34005 ft | 434 kts | 327° |
| 2026-05-08 01:53 | 31.26552 | -83.82978 | 34008 ft | 433 kts | 327° |
| 2026-05-08 01:54 | 31.32097 | -83.85719 | 34001 ft | 432 kts | 327° |
| 2026-05-08 01:54 | 31.37632 | -83.88462 | 33994 ft | 431 kts | 326° |
| 2026-05-08 01:55 | 31.43152 | -83.91197 | 33996 ft | 430 kts | 326° |
| 2026-05-08 01:55 | 31.48662 | -83.93925 | 33997 ft | 429 kts | 326° |
| 2026-05-08 01:56 | 31.54365 | -83.96213 | 34000 ft | 445 kts | 338° |
| 2026-05-08 01:56 | 31.60461 | -83.97570 | 33996 ft | 446 kts | 338° |
| 2026-05-08 01:57 | 31.66560 | -83.98906 | 33997 ft | 445 kts | 338° |
| 2026-05-08 01:57 | 31.72643 | -84.00246 | 33993 ft | 444 kts | 338° |
| 2026-05-08 01:58 | 31.78713 | -84.01604 | 33992 ft | 444 kts | 338° |
| 2026-05-08 01:58 | 31.84772 | -84.02956 | 33986 ft | 443 kts | 338° |
| 2026-05-08 01:59 | 31.90780 | -84.04293 | 33985 ft | 442 kts | 337° |
| 2026-05-08 01:59 | 31.96810 | -84.05643 | 33985 ft | 441 kts | 337° |
| 2026-05-08 02:00 | 32.02834 | -84.06988 | 33984 ft | 440 kts | 337° |
| 2026-05-08 02:00 | 32.08842 | -84.08334 | 33994 ft | 439 kts | 337° |
| 2026-05-08 02:01 | 32.14833 | -84.09684 | 33993 ft | 438 kts | 336° |
| 2026-05-08 02:01 | 32.20819 | -84.11035 | 33985 ft | 438 kts | 336° |
| 2026-05-08 02:02 | 32.26804 | -84.12389 | 33987 ft | 438 kts | 336° |
| 2026-05-08 02:02 | 32.32789 | -84.13728 | 33980 ft | 438 kts | 336° |
| 2026-05-08 02:03 | 32.38769 | -84.15067 | 33984 ft | 437 kts | 336° |
| 2026-05-08 02:03 | 32.44746 | -84.16415 | 33983 ft | 437 kts | 336° |
| 2026-05-08 02:04 | 32.50718 | -84.17772 | 33983 ft | 437 kts | 336° |
| 2026-05-08 02:04 | 32.56693 | -84.19129 | 33983 ft | 437 kts | 336° |
| 2026-05-08 02:05 | 32.62669 | -84.20478 | 33994 ft | 437 kts | 336° |
| 2026-05-08 02:05 | 32.68641 | -84.21832 | 34015 ft | 437 kts | 336° |
| 2026-05-08 02:06 | 32.74609 | -84.23193 | 34025 ft | 437 kts | 336° |
| 2026-05-08 02:06 | 32.80574 | -84.24562 | 34036 ft | 436 kts | 336° |
| 2026-05-08 02:07 | 32.86536 | -84.25919 | 34050 ft | 436 kts | 336° |
| 2026-05-08 02:07 | 32.92492 | -84.27276 | 34041 ft | 436 kts | 335° |
| 2026-05-08 02:08 | 32.98402 | -84.28629 | 34047 ft | 436 kts | 335° |
| 2026-05-08 02:08 | 33.04350 | -84.29999 | 34044 ft | 436 kts | 335° |
| 2026-05-08 02:09 | 33.10306 | -84.31367 | 34037 ft | 435 kts | 335° |
| 2026-05-08 02:09 | 33.16252 | -84.32731 | 34029 ft | 435 kts | 335° |
| 2026-05-08 02:10 | 33.22193 | -84.34090 | 34062 ft | 435 kts | 335° |
| 2026-05-08 02:10 | 33.28134 | -84.35449 | 34079 ft | 435 kts | 335° |
| 2026-05-08 02:11 | 33.34070 | -84.36818 | 34082 ft | 434 kts | 335° |
| 2026-05-08 02:11 | 33.39991 | -84.38198 | 34083 ft | 433 kts | 335° |
| 2026-05-08 02:12 | 33.45910 | -84.39570 | 34084 ft | 433 kts | 335° |
| 2026-05-08 02:12 | 33.51823 | -84.40936 | 34043 ft | 433 kts | 335° |
| 2026-05-08 02:13 | 33.57692 | -84.42297 | 34048 ft | 432 kts | 335° |
| 2026-05-08 02:13 | 33.63594 | -84.43664 | 34049 ft | 432 kts | 335° |
| 2026-05-08 02:14 | 33.69550 | -84.44993 | 34047 ft | 433 kts | 336° |
| 2026-05-08 02:14 | 33.75436 | -84.46271 | 34059 ft | 433 kts | 336° |
| 2026-05-08 02:15 | 33.81357 | -84.47558 | 34064 ft | 432 kts | 336° |
| 2026-05-08 02:15 | 33.87270 | -84.48857 | 34024 ft | 432 kts | 336° |
| 2026-05-08 02:16 | 33.93170 | -84.50165 | 34030 ft | 430 kts | 336° |
| 2026-05-08 02:16 | 33.99056 | -84.51470 | 34031 ft | 429 kts | 336° |
| 2026-05-08 02:17 | 34.04919 | -84.52783 | 34069 ft | 427 kts | 335° |
| 2026-05-08 02:17 | 34.10698 | -84.54253 | 34064 ft | 423 kts | 334° |
| 2026-05-08 02:18 | 34.16434 | -84.55799 | 34053 ft | 422 kts | 334° |
| 2026-05-08 02:18 | 34.22164 | -84.57322 | 34054 ft | 422 kts | 334° |
| 2026-05-08 02:19 | 34.27920 | -84.58828 | 34057 ft | 424 kts | 334° |
| 2026-05-08 02:19 | 34.33694 | -84.60323 | 34057 ft | 425 kts | 334° |
| 2026-05-08 02:20 | 34.39481 | -84.61821 | 34050 ft | 426 kts | 334° |
| 2026-05-08 02:20 | 34.45283 | -84.63335 | 34044 ft | 427 kts | 334° |
| 2026-05-08 02:21 | 34.51102 | -84.64853 | 34042 ft | 428 kts | 334° |
| 2026-05-08 02:21 | 34.56931 | -84.66379 | 34053 ft | 429 kts | 334° |
| 2026-05-08 02:22 | 34.62784 | -84.67873 | 34058 ft | 431 kts | 334° |
| 2026-05-08 02:22 | 34.68660 | -84.69322 | 34071 ft | 431 kts | 334° |
| 2026-05-08 02:23 | 34.74544 | -84.70773 | 34069 ft | 432 kts | 334° |
| 2026-05-08 02:23 | 34.80426 | -84.72229 | 34065 ft | 431 kts | 333° |
| 2026-05-08 02:24 | 34.86305 | -84.73691 | 34063 ft | 431 kts | 333° |
| 2026-05-08 02:24 | 34.92174 | -84.75155 | 34055 ft | 430 kts | 333° |
| 2026-05-08 02:25 | 34.98042 | -84.76620 | 34042 ft | 430 kts | 333° |
| 2026-05-08 02:25 | 35.03897 | -84.78083 | 34051 ft | 429 kts | 332° |
| 2026-05-08 02:26 | 35.09741 | -84.79539 | 34057 ft | 428 kts | 332° |
| 2026-05-08 02:26 | 35.14585 | -84.80744 | 34059 ft | 426 kts | 332° |
| 2026-05-08 02:27 | 35.20383 | -84.82203 | 34056 ft | 425 kts | 332° |
| 2026-05-08 02:27 | 35.26156 | -84.83660 | 34060 ft | 423 kts | 331° |
| 2026-05-08 02:28 | 35.31902 | -84.85112 | 34053 ft | 421 kts | 331° |
| 2026-05-08 02:28 | 35.37632 | -84.86553 | 34053 ft | 419 kts | 331° |
| 2026-05-08 02:29 | 35.43336 | -84.87994 | 34050 ft | 418 kts | 331° |
| 2026-05-08 02:29 | 35.49026 | -84.89437 | 34056 ft | 417 kts | 330° |
| 2026-05-08 02:30 | 35.54702 | -84.90875 | 34053 ft | 416 kts | 330° |
| 2026-05-08 02:30 | 35.60363 | -84.92307 | 34046 ft | 415 kts | 330° |
| 2026-05-08 02:31 | 35.66011 | -84.93735 | 34062 ft | 414 kts | 330° |
| 2026-05-08 02:31 | 35.71649 | -84.95163 | 34082 ft | 414 kts | 330° |
| 2026-05-08 02:32 | 35.77283 | -84.96594 | 34083 ft | 413 kts | 330° |
| 2026-05-08 02:32 | 35.82902 | -84.98021 | 34096 ft | 412 kts | 330° |
| 2026-05-08 02:33 | 35.88509 | -84.99453 | 34104 ft | 411 kts | 330° |
| 2026-05-08 02:33 | 35.94108 | -85.00880 | 34103 ft | 411 kts | 330° |
| 2026-05-08 02:34 | 35.99707 | -85.02298 | 34103 ft | 410 kts | 330° |
| 2026-05-08 02:34 | 36.05287 | -85.03736 | 34101 ft | 409 kts | 330° |
| 2026-05-08 02:35 | 36.10859 | -85.05177 | 34093 ft | 409 kts | 330° |
| 2026-05-08 02:35 | 36.16426 | -85.06605 | 34083 ft | 408 kts | 330° |
| 2026-05-08 02:36 | 36.21986 | -85.08031 | 34074 ft | 408 kts | 330° |
| 2026-05-08 02:36 | 36.27541 | -85.09460 | 34076 ft | 408 kts | 330° |
| 2026-05-08 02:37 | 36.33096 | -85.10890 | 34068 ft | 407 kts | 330° |
| 2026-05-08 02:37 | 36.38648 | -85.12325 | 34068 ft | 407 kts | 330° |
| 2026-05-08 02:38 | 36.44186 | -85.13760 | 34070 ft | 406 kts | 330° |
| 2026-05-08 02:38 | 36.49725 | -85.15194 | 34071 ft | 407 kts | 330° |
| 2026-05-08 02:39 | 36.55267 | -85.16632 | 34076 ft | 406 kts | 330° |
| 2026-05-08 02:39 | 36.60799 | -85.18076 | 34076 ft | 406 kts | 330° |
| 2026-05-08 02:40 | 36.66331 | -85.19515 | 34080 ft | 406 kts | 330° |
| 2026-05-08 02:40 | 36.71863 | -85.20953 | 34080 ft | 406 kts | 330° |
| 2026-05-08 02:41 | 36.77393 | -85.22394 | 34084 ft | 406 kts | 330° |
| 2026-05-08 02:41 | 36.82923 | -85.23834 | 34091 ft | 406 kts | 330° |
| 2026-05-08 02:42 | 36.88451 | -85.25276 | 34078 ft | 406 kts | 330° |
| 2026-05-08 02:42 | 36.93977 | -85.26727 | 34090 ft | 406 kts | 330° |
| 2026-05-08 02:43 | 36.99461 | -85.28168 | 34080 ft | 405 kts | 330° |
| 2026-05-08 02:43 | 37.04981 | -85.29620 | 34093 ft | 405 kts | 330° |
| 2026-05-08 02:44 | 37.10536 | -85.31088 | 34105 ft | 405 kts | 330° |
| 2026-05-08 02:44 | 37.16010 | -85.32534 | 34114 ft | 405 kts | 330° |
| 2026-05-08 02:45 | 37.21554 | -85.33993 | 34129 ft | 404 kts | 330° |
| 2026-05-08 02:45 | 37.27023 | -85.35437 | 34139 ft | 404 kts | 330° |
| 2026-05-08 02:46 | 37.32526 | -85.36895 | 34144 ft | 404 kts | 330° |
| 2026-05-08 02:46 | 37.38062 | -85.38366 | 34141 ft | 404 kts | 330° |
| 2026-05-08 02:47 | 37.43554 | -85.39825 | 34136 ft | 403 kts | 330° |
| 2026-05-08 02:47 | 37.49042 | -85.41285 | 34126 ft | 403 kts | 330° |
| 2026-05-08 02:48 | 37.54494 | -85.42734 | 34108 ft | 403 kts | 330° |
| 2026-05-08 02:48 | 37.59979 | -85.44198 | 34078 ft | 403 kts | 330° |
| 2026-05-08 02:49 | 37.65468 | -85.45666 | 34075 ft | 403 kts | 330° |
| 2026-05-08 02:49 | 37.70963 | -85.47139 | 34083 ft | 404 kts | 330° |
| 2026-05-08 02:50 | 37.76464 | -85.48620 | 34086 ft | 404 kts | 331° |
| 2026-05-08 02:50 | 37.81972 | -85.50095 | 34085 ft | 405 kts | 331° |
| 2026-05-08 02:51 | 37.87489 | -85.51572 | 34087 ft | 405 kts | 331° |
| 2026-05-08 02:51 | 37.93004 | -85.53067 | 34079 ft | 406 kts | 331° |
| 2026-05-08 02:52 | 37.98533 | -85.54558 | 34084 ft | 407 kts | 332° |
| 2026-05-08 02:52 | 38.04070 | -85.56045 | 34076 ft | 407 kts | 332° |
| 2026-05-08 02:53 | 38.09589 | -85.57577 | 34072 ft | 400 kts | 328° |
| 2026-05-08 02:53 | 38.12140 | -85.58765 | 34073 ft | 383 kts | 320° |
| 2026-05-08 02:53 | 38.14560 | -85.60179 | 34074 ft | 383 kts | 320° |
| 2026-05-08 02:54 | 38.19398 | -85.63035 | 34072 ft | 383 kts | 320° |
| 2026-05-08 02:54 | 38.24244 | -85.65892 | 34077 ft | 384 kts | 321° |
| 2026-05-08 02:55 | 38.31525 | -85.70172 | 34074 ft | 384 kts | 321° |
| 2026-05-08 02:56 | 38.36376 | -85.73035 | 34077 ft | 384 kts | 321° |
| 2026-05-08 02:56 | 38.41230 | -85.75906 | 34074 ft | 385 kts | 321° |
| 2026-05-08 02:57 | 38.46086 | -85.78780 | 34075 ft | 385 kts | 321° |
| 2026-05-08 02:57 | 38.50950 | -85.81653 | 34073 ft | 385 kts | 321° |
| 2026-05-08 02:58 | 38.55815 | -85.84536 | 34071 ft | 386 kts | 321° |
| 2026-05-08 02:58 | 38.60679 | -85.87424 | 34068 ft | 386 kts | 321° |
| 2026-05-08 02:59 | 38.65548 | -85.90316 | 34064 ft | 386 kts | 321° |
| 2026-05-08 02:59 | 38.70415 | -85.93218 | 34062 ft | 386 kts | 321° |
| 2026-05-08 03:00 | 38.75283 | -85.96125 | 34061 ft | 386 kts | 321° |
| 2026-05-08 03:00 | 38.80150 | -85.99035 | 34056 ft | 386 kts | 321° |
| 2026-05-08 03:01 | 38.85011 | -86.01945 | 34059 ft | 385 kts | 321° |
| 2026-05-08 03:01 | 38.89871 | -86.04853 | 34052 ft | 386 kts | 321° |
| 2026-05-08 03:02 | 38.94732 | -86.07767 | 34062 ft | 385 kts | 321° |
| 2026-05-08 03:02 | 38.99591 | -86.10687 | 34059 ft | 385 kts | 321° |
| 2026-05-08 03:03 | 39.04446 | -86.13612 | 34053 ft | 385 kts | 321° |
| 2026-05-08 03:03 | 39.09297 | -86.16539 | 34050 ft | 385 kts | 321° |
| 2026-05-08 03:04 | 39.14143 | -86.19463 | 34049 ft | 385 kts | 321° |
| 2026-05-08 03:04 | 39.18988 | -86.22391 | 34053 ft | 385 kts | 321° |
| 2026-05-08 03:05 | 39.23842 | -86.25331 | 34042 ft | 385 kts | 322° |
| 2026-05-08 03:05 | 39.28698 | -86.28276 | 34046 ft | 386 kts | 322° |
| 2026-05-08 03:06 | 39.33555 | -86.31222 | 34046 ft | 386 kts | 322° |
| 2026-05-08 03:06 | 39.38415 | -86.34183 | 34046 ft | 386 kts | 322° |
| 2026-05-08 03:07 | 39.43275 | -86.37151 | 34042 ft | 387 kts | 322° |
| 2026-05-08 03:07 | 39.48153 | -86.40129 | 34036 ft | 388 kts | 322° |
| 2026-05-08 03:08 | 39.53041 | -86.43117 | 34038 ft | 389 kts | 322° |
| 2026-05-08 03:08 | 39.57933 | -86.46114 | 34041 ft | 389 kts | 322° |
| 2026-05-08 03:09 | 39.62011 | -86.48616 | 34038 ft | 390 kts | 322° |
| 2026-05-08 03:09 | 39.66922 | -86.51630 | 34037 ft | 391 kts | 323° |
| 2026-05-08 03:10 | 39.72652 | -86.55153 | 34036 ft | 393 kts | 323° |
| 2026-05-08 03:10 | 39.76796 | -86.57712 | 34034 ft | 394 kts | 323° |
| 2026-05-08 03:11 | 39.81762 | -86.60777 | 34035 ft | 396 kts | 324° |
| 2026-05-08 03:11 | 39.86751 | -86.63855 | 34028 ft | 398 kts | 324° |
| 2026-05-08 03:12 | 39.91758 | -86.66955 | 34024 ft | 399 kts | 324° |
| 2026-05-08 03:12 | 39.96777 | -86.70071 | 34029 ft | 400 kts | 325° |
| 2026-05-08 03:13 | 40.01810 | -86.73191 | 34024 ft | 401 kts | 325° |
| 2026-05-08 03:13 | 40.06852 | -86.76325 | 34027 ft | 402 kts | 325° |
| 2026-05-08 03:14 | 40.11900 | -86.79473 | 34023 ft | 403 kts | 325° |
| 2026-05-08 03:14 | 40.16929 | -86.82606 | 34022 ft | 403 kts | 326° |
| 2026-05-08 03:15 | 40.21991 | -86.85766 | 34006 ft | 403 kts | 326° |
| 2026-05-08 03:15 | 40.27042 | -86.88933 | 34008 ft | 402 kts | 325° |
| 2026-05-08 03:16 | 40.32083 | -86.92103 | 34008 ft | 402 kts | 326° |
| 2026-05-08 03:16 | 40.37120 | -86.95272 | 34008 ft | 401 kts | 326° |
| 2026-05-08 03:17 | 40.42149 | -86.98435 | 34013 ft | 400 kts | 326° |
| 2026-05-08 03:17 | 40.47169 | -87.01590 | 34009 ft | 400 kts | 326° |
| 2026-05-08 03:18 | 40.52174 | -87.04748 | 34009 ft | 399 kts | 326° |
| 2026-05-08 03:18 | 40.57190 | -87.07860 | 34002 ft | 400 kts | 328° |
| 2026-05-08 03:19 | 40.62375 | -87.10591 | 33999 ft | 402 kts | 330° |
| 2026-05-08 03:19 | 40.67650 | -87.13183 | 33993 ft | 401 kts | 330° |
| 2026-05-08 03:20 | 40.72824 | -87.15790 | 33990 ft | 400 kts | 329° |
| 2026-05-08 03:20 | 40.78008 | -87.18477 | 33995 ft | 400 kts | 329° |
| 2026-05-08 03:21 | 40.83181 | -87.21178 | 34002 ft | 400 kts | 329° |
| 2026-05-08 03:21 | 40.88351 | -87.23881 | 34002 ft | 399 kts | 329° |
| 2026-05-08 03:22 | 40.93517 | -87.26583 | 34001 ft | 399 kts | 329° |
| 2026-05-08 03:22 | 40.98682 | -87.29282 | 33998 ft | 399 kts | 329° |
| 2026-05-08 03:23 | 41.03840 | -87.31981 | 33988 ft | 398 kts | 329° |
| 2026-05-08 03:23 | 41.08995 | -87.34682 | 33982 ft | 398 kts | 329° |
| 2026-05-08 03:24 | 41.14146 | -87.37381 | 33983 ft | 398 kts | 329° |
| 2026-05-08 03:24 | 41.19291 | -87.40088 | 33973 ft | 398 kts | 329° |
| 2026-05-08 03:25 | 41.24431 | -87.42799 | 33962 ft | 397 kts | 329° |
| 2026-05-08 03:25 | 41.29571 | -87.45513 | 33956 ft | 397 kts | 329° |
| 2026-05-08 03:26 | 41.34709 | -87.48225 | 33960 ft | 397 kts | 329° |
| 2026-05-08 03:26 | 41.39840 | -87.50947 | 33962 ft | 397 kts | 329° |
| 2026-05-08 03:27 | 41.44969 | -87.53668 | 33969 ft | 397 kts | 329° |
| 2026-05-08 03:27 | 41.50099 | -87.56394 | 33964 ft | 396 kts | 329° |
| 2026-05-08 03:28 | 41.55220 | -87.59115 | 33968 ft | 396 kts | 329° |
| 2026-05-08 03:28 | 41.60342 | -87.61840 | 33962 ft | 396 kts | 329° |
| 2026-05-08 03:29 | 41.65451 | -87.64571 | 33960 ft | 395 kts | 329° |
| 2026-05-08 03:29 | 41.70553 | -87.67307 | 33947 ft | 395 kts | 329° |
| 2026-05-08 03:30 | 41.78196 | -87.71405 | 33942 ft | 394 kts | 329° |
| 2026-05-08 03:31 | 41.88351 | -87.76876 | 33944 ft | 393 kts | 329° |
| 2026-05-08 03:32 | 41.95959 | -87.80971 | 33928 ft | 393 kts | 329° |
| 2026-05-08 03:32 | 42.00995 | -87.83691 | 33927 ft | 393 kts | 329° |
| 2026-05-08 03:33 | 42.06063 | -87.86434 | 33957 ft | 393 kts | 329° |
| 2026-05-08 03:33 | 42.11130 | -87.89180 | 33957 ft | 392 kts | 329° |
| 2026-05-08 03:34 | 42.16197 | -87.91925 | 33959 ft | 392 kts | 329° |
| 2026-05-08 03:34 | 42.21256 | -87.94676 | 33953 ft | 392 kts | 330° |
| 2026-05-08 03:35 | 42.26557 | -87.96792 | 33953 ft | 399 kts | 335° |
| 2026-05-08 03:35 | 42.31912 | -87.98752 | 33827 ft | 399 kts | 335° |
| 2026-05-08 03:35 | 42.34587 | -87.99731 | 33548 ft | 398 kts | 336° |
| 2026-05-08 03:36 | 42.37263 | -88.00697 | 33098 ft | 398 kts | 336° |
| 2026-05-08 03:36 | 42.39931 | -88.01674 | 32654 ft | 397 kts | 336° |
| 2026-05-08 03:36 | 42.42589 | -88.02658 | 32216 ft | 395 kts | 336° |
| 2026-05-08 03:36 | 42.45231 | -88.03638 | 31784 ft | 392 kts | 336° |
| 2026-05-08 03:37 | 42.47845 | -88.04609 | 31360 ft | 388 kts | 336° |
| 2026-05-08 03:37 | 42.50434 | -88.05571 | 30862 ft | 384 kts | 336° |
| 2026-05-08 03:37 | 42.52993 | -88.06517 | 30334 ft | 379 kts | 336° |
| 2026-05-08 03:37 | 42.55519 | -88.07448 | 29823 ft | 374 kts | 336° |
| 2026-05-08 03:38 | 42.58012 | -88.08365 | 29257 ft | 369 kts | 336° |
| 2026-05-08 03:38 | 42.60475 | -88.09273 | 28707 ft | 365 kts | 336° |
| 2026-05-08 03:38 | 42.62910 | -88.10175 | 28196 ft | 360 kts | 336° |
| 2026-05-08 03:38 | 42.65312 | -88.11070 | 27781 ft | 358 kts | 336° |
| 2026-05-08 03:39 | 42.67705 | -88.11964 | 27326 ft | 355 kts | 336° |
| 2026-05-08 03:39 | 42.70079 | -88.12849 | 26886 ft | 353 kts | 336° |
| 2026-05-08 03:39 | 42.72437 | -88.13726 | 26451 ft | 350 kts | 336° |
| 2026-05-08 03:39 | 42.74783 | -88.14597 | 26019 ft | 348 kts | 336° |
| 2026-05-08 03:40 | 42.77113 | -88.15463 | 25601 ft | 346 kts | 336° |
| 2026-05-08 03:40 | 42.79430 | -88.16327 | 25187 ft | 344 kts | 336° |
| 2026-05-08 03:40 | 42.81732 | -88.17189 | 24785 ft | 342 kts | 337° |
| 2026-05-08 03:40 | 42.84025 | -88.18046 | 24376 ft | 341 kts | 337° |
| 2026-05-08 03:41 | 42.86310 | -88.18900 | 23985 ft | 340 kts | 337° |
| 2026-05-08 03:41 | 42.88589 | -88.19751 | 23598 ft | 339 kts | 337° |
| 2026-05-08 03:41 | 42.90861 | -88.20602 | 23134 ft | 338 kts | 338° |
| 2026-05-08 03:41 | 42.93126 | -88.21453 | 22663 ft | 337 kts | 338° |
| 2026-05-08 03:42 | 42.95384 | -88.22302 | 22204 ft | 336 kts | 338° |
| 2026-05-08 03:42 | 42.97637 | -88.23147 | 21750 ft | 335 kts | 338° |
| 2026-05-08 03:42 | 42.99884 | -88.23988 | 21306 ft | 335 kts | 338° |
| 2026-05-08 03:42 | 43.02129 | -88.24828 | 20864 ft | 334 kts | 338° |
| 2026-05-08 03:43 | 43.04363 | -88.25668 | 20425 ft | 333 kts | 338° |
| 2026-05-08 03:43 | 43.06590 | -88.26510 | 19989 ft | 332 kts | 338° |
| 2026-05-08 03:43 | 43.08809 | -88.27349 | 19570 ft | 331 kts | 338° |
| 2026-05-08 03:43 | 43.11024 | -88.28186 | 19157 ft | 329 kts | 339° |
| 2026-05-08 03:44 | 43.13240 | -88.28982 | 18746 ft | 329 kts | 340° |
| 2026-05-08 03:44 | 43.15469 | -88.29693 | 18342 ft | 329 kts | 341° |
| 2026-05-08 03:44 | 43.17703 | -88.30360 | 17885 ft | 328 kts | 342° |
| 2026-05-08 03:44 | 43.19926 | -88.31012 | 17422 ft | 326 kts | 342° |
| 2026-05-08 03:45 | 43.22135 | -88.31664 | 16965 ft | 324 kts | 342° |
| 2026-05-08 03:45 | 43.24336 | -88.32323 | 16517 ft | 322 kts | 341° |
| 2026-05-08 03:45 | 43.26522 | -88.32986 | 16061 ft | 321 kts | 341° |
| 2026-05-08 03:45 | 43.28696 | -88.33650 | 15627 ft | 319 kts | 341° |
| 2026-05-08 03:46 | 43.30859 | -88.34317 | 15203 ft | 318 kts | 341° |
| 2026-05-08 03:46 | 43.33008 | -88.34984 | 14781 ft | 316 kts | 341° |
| 2026-05-08 03:46 | 43.35112 | -88.35639 | 14367 ft | 314 kts | 341° |
| 2026-05-08 03:46 | 43.37237 | -88.36298 | 13954 ft | 312 kts | 340° |
| 2026-05-08 03:47 | 43.39342 | -88.36948 | 13642 ft | 306 kts | 340° |
| 2026-05-08 03:47 | 43.41392 | -88.37577 | 13420 ft | 298 kts | 340° |
| 2026-05-08 03:47 | 43.43400 | -88.38195 | 13098 ft | 293 kts | 340° |
| 2026-05-08 03:47 | 43.45378 | -88.38807 | 12769 ft | 289 kts | 341° |
| 2026-05-08 03:48 | 43.47325 | -88.39409 | 12449 ft | 285 kts | 341° |
| 2026-05-08 03:48 | 43.49247 | -88.40002 | 12132 ft | 281 kts | 341° |
| 2026-05-08 03:48 | 43.51141 | -88.40585 | 11824 ft | 277 kts | 341° |
| 2026-05-08 03:48 | 43.53013 | -88.41163 | 11513 ft | 274 kts | 341° |
| 2026-05-08 03:49 | 43.54857 | -88.41734 | 11223 ft | 271 kts | 342° |
| 2026-05-08 03:49 | 43.56691 | -88.42303 | 10940 ft | 269 kts | 342° |
| 2026-05-08 03:49 | 43.58516 | -88.42871 | 10659 ft | 268 kts | 342° |
| 2026-05-08 03:49 | 43.60336 | -88.43433 | 10386 ft | 268 kts | 343° |
| 2026-05-08 03:50 | 43.62150 | -88.43993 | 10100 ft | 266 kts | 343° |
| 2026-05-08 03:50 | 43.63956 | -88.44553 | 9799 ft | 266 kts | 343° |
| 2026-05-08 03:50 | 43.65754 | -88.45112 | 9467 ft | 265 kts | 343° |
| 2026-05-08 03:50 | 43.67549 | -88.45671 | 9147 ft | 264 kts | 343° |
| 2026-05-08 03:51 | 43.69340 | -88.46229 | 8820 ft | 263 kts | 343° |
| 2026-05-08 03:51 | 43.71125 | -88.46785 | 8502 ft | 263 kts | 343° |
| 2026-05-08 03:51 | 43.72910 | -88.47340 | 8185 ft | 263 kts | 343° |
| 2026-05-08 03:51 | 43.74694 | -88.47897 | 7870 ft | 263 kts | 343° |
| 2026-05-08 03:52 | 43.76474 | -88.48454 | 7599 ft | 262 kts | 343° |
| 2026-05-08 03:52 | 43.78255 | -88.49010 | 7341 ft | 262 kts | 343° |
| 2026-05-08 03:52 | 43.80037 | -88.49564 | 7090 ft | 262 kts | 343° |
| 2026-05-08 03:52 | 43.81817 | -88.50118 | 6837 ft | 262 kts | 343° |
| 2026-05-08 03:53 | 43.83598 | -88.50676 | 6580 ft | 262 kts | 343° |
| 2026-05-08 03:53 | 43.85377 | -88.51235 | 6327 ft | 262 kts | 343° |
| 2026-05-08 03:53 | 43.87154 | -88.51792 | 6115 ft | 262 kts | 343° |
| 2026-05-08 03:53 | 43.88930 | -88.52345 | 5854 ft | 261 kts | 344° |
| 2026-05-08 03:54 | 43.90699 | -88.52892 | 5622 ft | 260 kts | 344° |
| 2026-05-08 03:54 | 43.92459 | -88.53439 | 5389 ft | 259 kts | 344° |
| 2026-05-08 03:54 | 43.94214 | -88.53988 | 5153 ft | 256 kts | 344° |
| 2026-05-08 03:54 | 43.95919 | -88.54521 | 4977 ft | 245 kts | 344° |
| 2026-05-08 03:55 | 43.97004 | -88.54858 | 4874 ft | 238 kts | 344° |
| 2026-05-08 03:55 | 43.98580 | -88.55352 | 4716 ft | 227 kts | 344° |
| 2026-05-08 03:55 | 44.00092 | -88.55826 | 4556 ft | 220 kts | 344° |
| 2026-05-08 03:55 | 44.01575 | -88.56294 | 4396 ft | 218 kts | 344° |
| 2026-05-08 03:56 | 44.03052 | -88.56760 | 4237 ft | 217 kts | 344° |
| 2026-05-08 03:56 | 44.04517 | -88.57219 | 4085 ft | 213 kts | 345° |
| 2026-05-08 03:56 | 44.05937 | -88.57662 | 3929 ft | 205 kts | 344° |
| 2026-05-08 03:56 | 44.07306 | -88.58092 | 3773 ft | 198 kts | 344° |
| 2026-05-08 03:57 | 44.08635 | -88.58510 | 3628 ft | 194 kts | 345° |
| 2026-05-08 03:57 | 44.09946 | -88.58922 | 3499 ft | 193 kts | 345° |
| 2026-05-08 03:57 | 44.11249 | -88.59333 | 3370 ft | 192 kts | 345° |
| 2026-05-08 03:57 | 44.12550 | -88.59746 | 3251 ft | 190 kts | 345° |
| 2026-05-08 03:58 | 44.13828 | -88.59889 | 3155 ft | 181 kts | 5° |
| 2026-05-08 03:58 | 44.15011 | -88.59349 | 3065 ft | 179 kts | 22° |
| 2026-05-08 03:58 | 44.16124 | -88.58590 | 2862 ft | 177 kts | 23° |
| 2026-05-08 03:58 | 44.17213 | -88.57847 | 2645 ft | 170 kts | 23° |
| 2026-05-08 03:59 | 44.18240 | -88.57147 | 2421 ft | 160 kts | 23° |
| 2026-05-08 03:59 | 44.19206 | -88.56489 | 2221 ft | 149 kts | 24° |
| 2026-05-08 03:59 | 44.20121 | -88.55867 | 2023 ft | 144 kts | 23° |
| 2026-05-08 03:59 | 44.21014 | -88.55260 | 1819 ft | 142 kts | 24° |
| 2026-05-08 04:00 | 44.21898 | -88.54661 | 1612 ft | 141 kts | 25° |
| 2026-05-08 04:00 | 44.22778 | -88.54061 | 1406 ft | 141 kts | 25° |
| 2026-05-08 04:00 | 44.23655 | -88.53463 | 1223 ft | 140 kts | 26° |
| 2026-05-08 04:00 | 44.24535 | -88.52868 | 1030 ft | 140 kts | 26° |
| 2026-05-08 04:01 | 44.25403 | -88.52271 | 892 ft | 130 kts | 26° |
| 2026-05-08 04:01 | 44.26011 | -88.51856 | 901 ft | 81 kts | 26° |
| 2026-05-08 04:01 | 44.26428 | -88.51573 | 897 ft | 49 kts | 26° |
| 2026-05-08 04:01 | 44.26594 | -88.51456 | 898 ft | 11 kts | 39° |
| 2026-05-08 04:02 | 44.26580 | -88.51369 | 898 ft | 12 kts | 115° |
| 2026-05-08 04:02 | 44.26513 | -88.51344 | 895 ft | 13 kts | 207° |
| 2026-05-08 04:02 | 44.26422 | -88.51406 | 894 ft | 16 kts | 206° |
| 2026-05-08 04:02 | 44.26320 | -88.51476 | 894 ft | 17 kts | 206° |
| 2026-05-08 04:03 | 44.26223 | -88.51544 | 893 ft | 13 kts | 206° |
| 2026-05-08 04:03 | 44.26141 | -88.51561 | 892 ft | 7 kts | 136° |
| 2026-05-08 04:03 | 44.26121 | -88.51488 | 890 ft | 8 kts | 97° |
| 2026-05-08 04:04 | 44.26121 | -88.51419 | 890 ft | 3 kts | 90° |
| 2026-05-08 04:04 | 44.26110 | -88.51401 | 890 ft | 4 kts | 149° |
| 2026-05-08 04:04 | 44.26080 | -88.51397 | 889 ft | 3 kts | 180° |
| 2026-05-08 04:04 | 44.26069 | -88.51397 | 889 ft | 2 kts | 179° |
| 2026-05-08 04:05 | 44.26065 | -88.51397 | 889 ft | 0 kts | 179° |